sensor_id;sensor_type;location;lat;lon;timestamp;pressure;altitude;pressure_sealevel;temperature;humidity
46846;BME280;33947;46.804;134.252;2024-03-07T00:00:21;101168.69;;;-10.73;52.62
46846;BME280;33947;46.804;134.252;2024-03-07T00:03:29;101159.78;;;-10.51;51.98
46846;BME280;33947;46.804;134.252;2024-03-07T00:06:36;101194.41;;;-9.34;50.76
46846;BME280;33947;46.804;134.252;2024-03-07T00:09:49;101192.72;;;-8.90;48.00
46846;BME280;33947;46.804;134.252;2024-03-07T00:13:00;101178.31;;;-8.86;48.27
46846;BME280;33947;46.804;134.252;2024-03-07T00:16:08;101183.00;;;-8.34;47.49
46846;BME280;33947;46.804;134.252;2024-03-07T00:19:17;101190.56;;;-8.37;46.99
46846;BME280;33947;46.804;134.252;2024-03-07T00:22:24;101179.22;;;-8.24;47.79
46846;BME280;33947;46.804;134.252;2024-03-07T00:25:36;101187.81;;;-7.44;47.75
46846;BME280;33947;46.804;134.252;2024-03-07T00:28:43;101180.00;;;-6.58;46.58
46846;BME280;33947;46.804;134.252;2024-03-07T00:31:50;101175.75;;;-5.83;46.37
46846;BME280;33947;46.804;134.252;2024-03-07T00:34:57;101175.97;;;-5.39;44.31
46846;BME280;33947;46.804;134.252;2024-03-07T00:38:05;101171.06;;;-5.33;44.10
46846;BME280;33947;46.804;134.252;2024-03-07T00:41:14;101173.56;;;-4.95;43.75
46846;BME280;33947;46.804;134.252;2024-03-07T00:44:21;101158.31;;;-4.22;42.95
46846;BME280;33947;46.804;134.252;2024-03-07T00:47:29;101165.50;;;-2.96;42.33
46846;BME280;33947;46.804;134.252;2024-03-07T00:50:36;101166.84;;;-2.82;40.76
46846;BME280;33947;46.804;134.252;2024-03-07T00:53:44;101161.81;;;-1.93;39.65
46846;BME280;33947;46.804;134.252;2024-03-07T00:56:53;101162.00;;;-1.26;37.75
46846;BME280;33947;46.804;134.252;2024-03-07T01:00:00;101149.97;;;-1.21;37.24
46846;BME280;33947;46.804;134.252;2024-03-07T01:03:08;101154.03;;;-0.63;38.08
46846;BME280;33947;46.804;134.252;2024-03-07T01:06:18;101153.69;;;-0.04;37.57
46846;BME280;33947;46.804;134.252;2024-03-07T01:09:30;101138.47;;;1.10;35.30
46846;BME280;33947;46.804;134.252;2024-03-07T01:12:38;101143.56;;;1.01;33.90
46846;BME280;33947;46.804;134.252;2024-03-07T01:15:45;101143.31;;;0.88;35.52
46846;BME280;33947;46.804;134.252;2024-03-07T01:18:53;101140.34;;;1.17;35.05
46846;BME280;33947;46.804;134.252;2024-03-07T01:22:00;101149.41;;;1.35;33.42
46846;BME280;33947;46.804;134.252;2024-03-07T01:25:07;101135.09;;;2.36;32.67
46846;BME280;33947;46.804;134.252;2024-03-07T01:28:16;101144.78;;;2.40;32.02
46846;BME280;33947;46.804;134.252;2024-03-07T01:31:23;101130.88;;;2.51;32.72
46846;BME280;33947;46.804;134.252;2024-03-07T01:34:30;101127.25;;;2.41;32.09
46846;BME280;33947;46.804;134.252;2024-03-07T01:37:37;101122.69;;;1.59;33.64
46846;BME280;33947;46.804;134.252;2024-03-07T01:40:45;101124.41;;;3.01;32.34
46846;BME280;33947;46.804;134.252;2024-03-07T01:43:55;101122.47;;;2.06;30.38
46846;BME280;33947;46.804;134.252;2024-03-07T01:47:02;101126.22;;;3.07;31.24
46846;BME280;33947;46.804;134.252;2024-03-07T01:50:10;101126.28;;;3.13;30.27
46846;BME280;33947;46.804;134.252;2024-03-07T01:53:18;101117.94;;;3.73;30.70
46846;BME280;33947;46.804;134.252;2024-03-07T01:56:25;101121.75;;;4.23;29.23
46846;BME280;33947;46.804;134.252;2024-03-07T01:59:38;101122.75;;;4.52;28.45
46846;BME280;33947;46.804;134.252;2024-03-07T02:02:45;101101.31;;;3.74;28.59
46846;BME280;33947;46.804;134.252;2024-03-07T02:05:53;101102.31;;;0.89;30.54
46846;BME280;33947;46.804;134.252;2024-03-07T02:09:01;101113.63;;;0.42;33.18
46846;BME280;33947;46.804;134.252;2024-03-07T02:12:11;101112.25;;;0.17;33.81
46846;BME280;33947;46.804;134.252;2024-03-07T02:15:20;101107.47;;;1.97;31.71
46846;BME280;33947;46.804;134.252;2024-03-07T02:18:27;101052.47;;;0.87;33.26
46846;BME280;33947;46.804;134.252;2024-03-07T02:21:37;101104.19;;;0.06;34.38
46846;BME280;33947;46.804;134.252;2024-03-07T02:24:44;101090.06;;;-0.03;32.98
46846;BME280;33947;46.804;134.252;2024-03-07T02:27:51;100895.66;;;-0.46;34.12
46846;BME280;33947;46.804;134.252;2024-03-07T02:30:58;101083.34;;;1.04;34.24
46846;BME280;33947;46.804;134.252;2024-03-07T02:34:06;101077.16;;;1.00;35.14
46846;BME280;33947;46.804;134.252;2024-03-07T02:37:15;101066.69;;;-0.36;34.88
46846;BME280;33947;46.804;134.252;2024-03-07T02:40:23;101095.09;;;-0.12;35.11
46846;BME280;33947;46.804;134.252;2024-03-07T02:43:31;101075.91;;;0.78;34.84
46846;BME280;33947;46.804;134.252;2024-03-07T02:46:42;101063.66;;;0.77;34.79
46846;BME280;33947;46.804;134.252;2024-03-07T02:49:52;101032.78;;;1.10;33.88
46846;BME280;33947;46.804;134.252;2024-03-07T02:53:00;101060.38;;;0.40;34.60
46846;BME280;33947;46.804;134.252;2024-03-07T02:56:09;101067.91;;;-0.20;35.95
46846;BME280;33947;46.804;134.252;2024-03-07T02:59:16;101072.56;;;-1.19;37.02
46846;BME280;33947;46.804;134.252;2024-03-07T03:02:27;101063.94;;;-0.41;36.74
46846;BME280;33947;46.804;134.252;2024-03-07T03:05:35;101010.59;;;-1.24;35.99
46846;BME280;33947;46.804;134.252;2024-03-07T03:08:45;101054.31;;;-0.02;36.46
46846;BME280;33947;46.804;134.252;2024-03-07T03:11:52;101062.78;;;-0.14;36.67
46846;BME280;33947;46.804;134.252;2024-03-07T03:15:00;101061.31;;;-1.16;37.44
46846;BME280;33947;46.804;134.252;2024-03-07T03:18:09;101060.16;;;-0.55;36.96
46846;BME280;33947;46.804;134.252;2024-03-07T03:21:17;101050.06;;;-1.47;36.95
46846;BME280;33947;46.804;134.252;2024-03-07T03:24:25;101042.78;;;-1.59;36.69
46846;BME280;33947;46.804;134.252;2024-03-07T03:27:33;101044.53;;;-1.92;37.41
46846;BME280;33947;46.804;134.252;2024-03-07T03:30:40;101018.25;;;-1.32;37.23
46846;BME280;33947;46.804;134.252;2024-03-07T03:33:51;101033.66;;;-2.36;39.31
46846;BME280;33947;46.804;134.252;2024-03-07T03:36:57;101030.59;;;-1.60;38.91
46846;BME280;33947;46.804;134.252;2024-03-07T03:40:08;101024.91;;;-1.45;37.69
46846;BME280;33947;46.804;134.252;2024-03-07T03:43:15;101022.06;;;-1.86;37.35
46846;BME280;33947;46.804;134.252;2024-03-07T03:46:23;101010.03;;;-1.12;37.49
46846;BME280;33947;46.804;134.252;2024-03-07T03:49:31;101014.41;;;-1.11;36.63
46846;BME280;33947;46.804;134.252;2024-03-07T03:52:38;101003.63;;;-1.25;36.70
46846;BME280;33947;46.804;134.252;2024-03-07T03:55:47;101012.34;;;-1.59;38.41
46846;BME280;33947;46.804;134.252;2024-03-07T03:58:54;100985.59;;;-1.51;37.38
46846;BME280;33947;46.804;134.252;2024-03-07T04:02:01;101004.38;;;-1.97;37.28
46846;BME280;33947;46.804;134.252;2024-03-07T04:05:10;100991.00;;;-2.09;38.58
46846;BME280;33947;46.804;134.252;2024-03-07T04:08:19;100986.84;;;-2.33;38.73
46846;BME280;33947;46.804;134.252;2024-03-07T04:11:28;100963.38;;;-2.03;37.67
46846;BME280;33947;46.804;134.252;2024-03-07T04:14:34;100987.94;;;-2.55;38.28
46846;BME280;33947;46.804;134.252;2024-03-07T04:17:42;100946.31;;;-2.54;38.16
46846;BME280;33947;46.804;134.252;2024-03-07T04:20:50;100976.03;;;-1.84;37.69
46846;BME280;33947;46.804;134.252;2024-03-07T04:23:57;100978.94;;;-1.38;37.80
46846;BME280;33947;46.804;134.252;2024-03-07T04:27:06;100976.94;;;-1.49;37.42
46846;BME280;33947;46.804;134.252;2024-03-07T04:30:14;100971.63;;;-1.53;38.23
46846;BME280;33947;46.804;134.252;2024-03-07T04:33:21;100973.56;;;-1.78;37.36
46846;BME280;33947;46.804;134.252;2024-03-07T04:36:29;100952.63;;;-1.81;37.29
46846;BME280;33947;46.804;134.252;2024-03-07T04:39:37;100969.22;;;-1.09;37.30
46846;BME280;33947;46.804;134.252;2024-03-07T04:42:46;100969.44;;;-1.70;37.08
46846;BME280;33947;46.804;134.252;2024-03-07T04:45:54;100975.31;;;-1.45;38.50
46846;BME280;33947;46.804;134.252;2024-03-07T04:49:02;100963.53;;;-1.27;37.50
46846;BME280;33947;46.804;134.252;2024-03-07T04:52:09;100961.53;;;-2.37;37.70
46846;BME280;33947;46.804;134.252;2024-03-07T04:55:16;100930.25;;;-2.37;38.30
46846;BME280;33947;46.804;134.252;2024-03-07T04:58:25;100958.53;;;-1.89;38.52
46846;BME280;33947;46.804;134.252;2024-03-07T05:01:32;100944.38;;;-1.28;36.96
46846;BME280;33947;46.804;134.252;2024-03-07T05:04:40;100945.50;;;-1.18;36.68
46846;BME280;33947;46.804;134.252;2024-03-07T05:07:47;100961.81;;;-1.27;36.97
46846;BME280;33947;46.804;134.252;2024-03-07T05:10:55;100964.97;;;-1.04;37.08
46846;BME280;33947;46.804;134.252;2024-03-07T05:14:04;100932.63;;;-1.46;35.61
46846;BME280;33947;46.804;134.252;2024-03-07T05:17:11;100958.38;;;-1.61;38.43
46846;BME280;33947;46.804;134.252;2024-03-07T05:20:18;100955.19;;;-1.49;37.24
46846;BME280;33947;46.804;134.252;2024-03-07T05:23:25;100950.34;;;-1.69;37.20
46846;BME280;33947;46.804;134.252;2024-03-07T05:26:33;100950.41;;;-1.66;36.83
46846;BME280;33947;46.804;134.252;2024-03-07T05:29:43;100948.69;;;-2.31;37.72
46846;BME280;33947;46.804;134.252;2024-03-07T05:32:50;100933.56;;;-2.12;38.78
46846;BME280;33947;46.804;134.252;2024-03-07T05:35:58;100947.59;;;-1.40;37.92
46846;BME280;33947;46.804;134.252;2024-03-07T05:39:19;100944.13;;;-2.06;37.62
46846;BME280;33947;46.804;134.252;2024-03-07T05:42:27;100948.03;;;-2.24;38.70
46846;BME280;33947;46.804;134.252;2024-03-07T05:45:36;100890.97;;;-2.13;38.04
46846;BME280;33947;46.804;134.252;2024-03-07T05:48:43;100948.25;;;-1.12;37.01
46846;BME280;33947;46.804;134.252;2024-03-07T05:51:51;100939.97;;;-1.66;36.74
46846;BME280;33947;46.804;134.252;2024-03-07T05:54:59;100935.13;;;-1.85;38.10
46846;BME280;33947;46.804;134.252;2024-03-07T05:58:05;100935.16;;;-2.18;38.50
46846;BME280;33947;46.804;134.252;2024-03-07T06:01:14;100933.09;;;-1.97;38.22
46846;BME280;33947;46.804;134.252;2024-03-07T06:04:22;100939.16;;;-1.97;38.55
46846;BME280;33947;46.804;134.252;2024-03-07T06:07:29;100930.44;;;-1.64;38.01
46846;BME280;33947;46.804;134.252;2024-03-07T06:10:38;100936.38;;;-1.36;36.35
46846;BME280;33947;46.804;134.252;2024-03-07T06:13:46;100935.66;;;-1.65;37.14
46846;BME280;33947;46.804;134.252;2024-03-07T06:16:55;100933.69;;;-1.74;38.14
46846;BME280;33947;46.804;134.252;2024-03-07T06:20:03;100932.88;;;-2.05;38.51
46846;BME280;33947;46.804;134.252;2024-03-07T06:23:28;100921.59;;;-2.36;39.25
46846;BME280;33947;46.804;134.252;2024-03-07T06:26:35;100936.78;;;-2.21;39.24
46846;BME280;33947;46.804;134.252;2024-03-07T06:29:55;100931.28;;;-2.32;38.78
46846;BME280;33947;46.804;134.252;2024-03-07T06:33:05;100928.97;;;-2.21;39.38
46846;BME280;33947;46.804;134.252;2024-03-07T06:36:13;100925.66;;;-2.15;39.21
46846;BME280;33947;46.804;134.252;2024-03-07T06:39:21;100902.59;;;-2.64;39.63
46846;BME280;33947;46.804;134.252;2024-03-07T06:42:28;100913.78;;;-2.68;39.27
46846;BME280;33947;46.804;134.252;2024-03-07T06:45:38;100927.38;;;-2.48;38.65
46846;BME280;33947;46.804;134.252;2024-03-07T06:48:47;100924.63;;;-2.53;38.90
46846;BME280;33947;46.804;134.252;2024-03-07T06:51:55;100897.09;;;-2.73;38.98
46846;BME280;33947;46.804;134.252;2024-03-07T06:55:03;100924.28;;;-2.94;38.24
46846;BME280;33947;46.804;134.252;2024-03-07T06:58:12;100916.38;;;-2.68;37.82
46846;BME280;33947;46.804;134.252;2024-03-07T07:01:19;100910.91;;;-2.47;37.98
46846;BME280;33947;46.804;134.252;2024-03-07T07:04:29;100915.31;;;-2.73;37.60
46846;BME280;33947;46.804;134.252;2024-03-07T07:07:46;100918.06;;;-2.70;37.85
46846;BME280;33947;46.804;134.252;2024-03-07T07:10:53;100914.31;;;-2.79;37.60
46846;BME280;33947;46.804;134.252;2024-03-07T07:14:01;100919.91;;;-2.34;37.26
46846;BME280;33947;46.804;134.252;2024-03-07T07:17:09;100921.09;;;-2.84;37.78
46846;BME280;33947;46.804;134.252;2024-03-07T07:20:19;100923.13;;;-2.73;38.88
46846;BME280;33947;46.804;134.252;2024-03-07T07:23:29;100918.97;;;-2.68;37.93
46846;BME280;33947;46.804;134.252;2024-03-07T07:26:37;100922.88;;;-2.83;38.21
46846;BME280;33947;46.804;134.252;2024-03-07T07:29:44;100908.66;;;-2.94;38.12
46846;BME280;33947;46.804;134.252;2024-03-07T07:32:52;100902.03;;;-3.12;38.45
46846;BME280;33947;46.804;134.252;2024-03-07T07:36:02;100918.31;;;-2.90;37.41
46846;BME280;33947;46.804;134.252;2024-03-07T07:39:09;100923.78;;;-2.82;37.66
46846;BME280;33947;46.804;134.252;2024-03-07T07:42:21;100919.00;;;-2.96;37.35
46846;BME280;33947;46.804;134.252;2024-03-07T07:45:28;100924.13;;;-2.70;38.38
46846;BME280;33947;46.804;134.252;2024-03-07T07:48:37;100916.88;;;-2.80;37.24
46846;BME280;33947;46.804;134.252;2024-03-07T07:51:46;100921.59;;;-2.68;37.35
46846;BME280;33947;46.804;134.252;2024-03-07T07:54:55;100861.66;;;-2.99;36.83
46846;BME280;33947;46.804;134.252;2024-03-07T07:58:02;100909.22;;;-3.05;35.74
46846;BME280;33947;46.804;134.252;2024-03-07T08:01:09;100886.56;;;-3.36;37.12
46846;BME280;33947;46.804;134.252;2024-03-07T08:04:19;100916.34;;;-3.26;37.29
46846;BME280;33947;46.804;134.252;2024-03-07T08:07:27;100892.59;;;-3.65;37.25
46846;BME280;33947;46.804;134.252;2024-03-07T08:10:36;100883.56;;;-4.02;37.09
46846;BME280;33947;46.804;134.252;2024-03-07T08:13:47;100921.84;;;-3.72;37.96
46846;BME280;33947;46.804;134.252;2024-03-07T08:16:56;100918.91;;;-4.07;38.14
46846;BME280;33947;46.804;134.252;2024-03-07T08:20:03;100920.78;;;-4.03;38.38
46846;BME280;33947;46.804;134.252;2024-03-07T08:23:16;100913.63;;;-4.35;38.28
46846;BME280;33947;46.804;134.252;2024-03-07T08:26:23;100922.38;;;-4.32;38.32
46846;BME280;33947;46.804;134.252;2024-03-07T08:29:30;100931.03;;;-4.56;38.46
46846;BME280;33947;46.804;134.252;2024-03-07T08:32:37;100928.56;;;-4.99;38.82
46846;BME280;33947;46.804;134.252;2024-03-07T08:35:43;100932.56;;;-4.84;38.76
46846;BME280;33947;46.804;134.252;2024-03-07T08:38:52;100926.38;;;-5.11;39.21
46846;BME280;33947;46.804;134.252;2024-03-07T08:41:59;100905.66;;;-5.32;39.73
46846;BME280;33947;46.804;134.252;2024-03-07T08:45:08;100930.66;;;-5.34;39.78
46846;BME280;33947;46.804;134.252;2024-03-07T08:48:15;100918.41;;;-5.59;40.16
46846;BME280;33947;46.804;134.252;2024-03-07T08:51:24;100905.34;;;-5.84;40.11
46846;BME280;33947;46.804;134.252;2024-03-07T08:54:32;100895.09;;;-6.02;40.69
46846;BME280;33947;46.804;134.252;2024-03-07T08:57:40;100917.13;;;-6.12;40.97
46846;BME280;33947;46.804;134.252;2024-03-07T09:00:48;100924.16;;;-6.09;41.02
46846;BME280;33947;46.804;134.252;2024-03-07T09:03:56;100907.88;;;-6.26;40.87
46846;BME280;33947;46.804;134.252;2024-03-07T09:07:04;100943.09;;;-6.10;41.15
46846;BME280;33947;46.804;134.252;2024-03-07T09:10:12;100949.09;;;-6.31;41.32
46846;BME280;33947;46.804;134.252;2024-03-07T09:13:19;100950.38;;;-6.41;41.41
46846;BME280;33947;46.804;134.252;2024-03-07T09:16:25;100931.13;;;-6.47;41.18
46846;BME280;33947;46.804;134.252;2024-03-07T09:19:33;100953.06;;;-6.39;41.45
46846;BME280;33947;46.804;134.252;2024-03-07T09:25:49;100928.50;;;-6.67;40.67
46846;BME280;33947;46.804;134.252;2024-03-07T09:28:56;100881.13;;;-6.86;40.74
46846;BME280;33947;46.804;134.252;2024-03-07T09:32:04;100950.59;;;-6.56;40.81
46846;BME280;33947;46.804;134.252;2024-03-07T09:35:14;100961.06;;;-6.53;40.88
46846;BME280;33947;46.804;134.252;2024-03-07T09:38:22;100920.19;;;-6.79;40.31
46846;BME280;33947;46.804;134.252;2024-03-07T09:41:32;100951.91;;;-6.65;41.03
46846;BME280;33947;46.804;134.252;2024-03-07T09:44:42;100962.97;;;-6.68;39.84
46846;BME280;33947;46.804;134.252;2024-03-07T09:47:53;100938.34;;;-6.98;41.19
46846;BME280;33947;46.804;134.252;2024-03-07T09:51:00;100967.13;;;-6.90;41.18
46846;BME280;33947;46.804;134.252;2024-03-07T09:54:09;100971.50;;;-6.89;40.77
46846;BME280;33947;46.804;134.252;2024-03-07T09:57:18;100954.44;;;-7.05;41.35
46846;BME280;33947;46.804;134.252;2024-03-07T10:00:26;100969.97;;;-7.05;41.32
46846;BME280;33947;46.804;134.252;2024-03-07T10:03:35;100970.09;;;-7.20;40.82
46846;BME280;33947;46.804;134.252;2024-03-07T10:06:46;100967.66;;;-7.17;41.96
46846;BME280;33947;46.804;134.252;2024-03-07T10:09:54;100932.84;;;-7.42;41.59
46846;BME280;33947;46.804;134.252;2024-03-07T10:13:06;100965.28;;;-7.30;41.06
46846;BME280;33947;46.804;134.252;2024-03-07T10:16:16;100948.31;;;-7.43;41.76
46846;BME280;33947;46.804;134.252;2024-03-07T10:19:24;100966.91;;;-7.32;41.12
46846;BME280;33947;46.804;134.252;2024-03-07T10:22:32;100964.97;;;-7.55;41.71
46846;BME280;33947;46.804;134.252;2024-03-07T10:25:41;100962.09;;;-7.61;41.57
46846;BME280;33947;46.804;134.252;2024-03-07T10:28:50;100968.59;;;-7.51;41.40
46846;BME280;33947;46.804;134.252;2024-03-07T10:31:57;100966.22;;;-7.64;41.37
46846;BME280;33947;46.804;134.252;2024-03-07T10:35:08;100964.59;;;-7.80;41.75
46846;BME280;33947;46.804;134.252;2024-03-07T10:38:18;100967.19;;;-7.97;41.46
46846;BME280;33947;46.804;134.252;2024-03-07T10:41:27;100970.38;;;-7.85;41.67
46846;BME280;33947;46.804;134.252;2024-03-07T10:44:38;100973.28;;;-7.78;41.18
46846;BME280;33947;46.804;134.252;2024-03-07T10:47:53;100972.09;;;-8.02;42.16
46846;BME280;33947;46.804;134.252;2024-03-07T10:51:09;100975.50;;;-8.19;41.92
46846;BME280;33947;46.804;134.252;2024-03-07T10:54:22;100959.38;;;-8.48;42.57
46846;BME280;33947;46.804;134.252;2024-03-07T10:57:35;100945.31;;;-8.87;42.94
46846;BME280;33947;46.804;134.252;2024-03-07T11:00:50;100991.38;;;-8.61;42.98
46846;BME280;33947;46.804;134.252;2024-03-07T11:04:00;100992.59;;;-8.71;43.69
46846;BME280;33947;46.804;134.252;2024-03-07T11:07:11;100989.00;;;-8.90;43.33
46846;BME280;33947;46.804;134.252;2024-03-07T11:10:22;100991.25;;;-9.11;43.19
46846;BME280;33947;46.804;134.252;2024-03-07T11:13:30;100992.44;;;-9.36;43.09
46846;BME280;33947;46.804;134.252;2024-03-07T11:16:41;100955.72;;;-9.63;44.01
46846;BME280;33947;46.804;134.252;2024-03-07T11:19:48;100986.69;;;-9.47;44.22
46846;BME280;33947;46.804;134.252;2024-03-07T11:22:56;100991.97;;;-9.75;44.07
46846;BME280;33947;46.804;134.252;2024-03-07T11:26:04;100989.00;;;-9.96;45.14
46846;BME280;33947;46.804;134.252;2024-03-07T11:29:40;100990.34;;;-10.03;46.55
46846;BME280;33947;46.804;134.252;2024-03-07T11:32:51;100990.03;;;-10.23;46.65
46846;BME280;33947;46.804;134.252;2024-03-07T11:35:59;100986.50;;;-10.67;47.94
46846;BME280;33947;46.804;134.252;2024-03-07T11:39:39;100995.22;;;-10.65;48.16
46846;BME280;33947;46.804;134.252;2024-03-07T11:42:48;100966.28;;;-10.76;47.13
46846;BME280;33947;46.804;134.252;2024-03-07T11:45:56;100989.94;;;-10.24;47.33
46846;BME280;33947;46.804;134.252;2024-03-07T11:49:07;100988.06;;;-10.27;46.85
46846;BME280;33947;46.804;134.252;2024-03-07T11:52:21;100976.78;;;-10.29;47.63
46846;BME280;33947;46.804;134.252;2024-03-07T11:55:28;100984.22;;;-10.34;47.50
46846;BME280;33947;46.804;134.252;2024-03-07T11:58:47;100982.63;;;-10.60;48.11
46846;BME280;33947;46.804;134.252;2024-03-07T12:02:00;100981.16;;;-10.70;49.08
46846;BME280;33947;46.804;134.252;2024-03-07T12:05:10;100981.72;;;-10.89;49.51
46846;BME280;33947;46.804;134.252;2024-03-07T12:08:23;100977.09;;;-11.08;49.85
46846;BME280;33947;46.804;134.252;2024-03-07T12:11:31;100975.69;;;-10.90;48.84
46846;BME280;33947;46.804;134.252;2024-03-07T12:14:44;100977.34;;;-10.90;48.60
46846;BME280;33947;46.804;134.252;2024-03-07T12:17:51;100981.78;;;-11.43;50.54
46846;BME280;33947;46.804;134.252;2024-03-07T12:21:03;100982.66;;;-11.69;50.51
46846;BME280;33947;46.804;134.252;2024-03-07T12:24:14;100974.50;;;-12.02;51.04
46846;BME280;33947;46.804;134.252;2024-03-07T12:27:22;100989.72;;;-11.92;51.27
46846;BME280;33947;46.804;134.252;2024-03-07T12:30:34;100988.31;;;-12.00;51.34
46846;BME280;33947;46.804;134.252;2024-03-07T12:33:45;100953.03;;;-12.16;51.82
46846;BME280;33947;46.804;134.252;2024-03-07T12:36:59;100980.94;;;-11.82;50.99
46846;BME280;33947;46.804;134.252;2024-03-07T12:40:12;100976.28;;;-12.01;51.40
46846;BME280;33947;46.804;134.252;2024-03-07T12:43:23;100977.78;;;-11.92;51.58
46846;BME280;33947;46.804;134.252;2024-03-07T12:46:33;100959.94;;;-12.15;51.69
46846;BME280;33947;46.804;134.252;2024-03-07T12:49:41;100967.75;;;-12.14;52.74
46846;BME280;33947;46.804;134.252;2024-03-07T12:52:50;100960.84;;;-12.15;52.97
46846;BME280;33947;46.804;134.252;2024-03-07T12:55:57;100970.50;;;-11.72;51.27
46846;BME280;33947;46.804;134.252;2024-03-07T12:59:05;100974.50;;;-12.02;52.11
46846;BME280;33947;46.804;134.252;2024-03-07T13:02:13;100976.97;;;-12.29;51.90
46846;BME280;33947;46.804;134.252;2024-03-07T13:05:21;100987.84;;;-12.20;52.39
46846;BME280;33947;46.804;134.252;2024-03-07T13:08:33;100986.81;;;-12.36;51.76
46846;BME280;33947;46.804;134.252;2024-03-07T13:11:40;100990.59;;;-12.68;52.59
46846;BME280;33947;46.804;134.252;2024-03-07T13:14:52;100989.16;;;-12.76;53.41
46846;BME280;33947;46.804;134.252;2024-03-07T13:17:59;100984.97;;;-12.87;52.77
46846;BME280;33947;46.804;134.252;2024-03-07T13:21:07;100987.94;;;-12.69;52.39
46846;BME280;33947;46.804;134.252;2024-03-07T13:24:17;100984.91;;;-13.13;52.19
46846;BME280;33947;46.804;134.252;2024-03-07T13:27:25;100973.78;;;-13.37;53.66
46846;BME280;33947;46.804;134.252;2024-03-07T13:30:34;100947.19;;;-13.39;52.97
46846;BME280;33947;46.804;134.252;2024-03-07T13:33:42;100987.50;;;-13.25;52.24
46846;BME280;33947;46.804;134.252;2024-03-07T13:36:50;100987.13;;;-13.53;53.97
46846;BME280;33947;46.804;134.252;2024-03-07T13:39:59;100983.78;;;-13.88;54.68
46846;BME280;33947;46.804;134.252;2024-03-07T13:43:25;100983.50;;;-14.03;55.43
46846;BME280;33947;46.804;134.252;2024-03-07T13:46:33;100981.88;;;-13.90;55.89
46846;BME280;33947;46.804;134.252;2024-03-07T13:49:41;100984.72;;;-13.40;54.77
46846;BME280;33947;46.804;134.252;2024-03-07T13:52:52;100978.53;;;-13.89;55.10
46846;BME280;33947;46.804;134.252;2024-03-07T13:56:40;100942.28;;;-14.42;55.87
46846;BME280;33947;46.804;134.252;2024-03-07T13:59:59;100976.91;;;-14.23;56.21
46846;BME280;33947;46.804;134.252;2024-03-07T14:07:37;100955.56;;;-13.42;54.59
46846;BME280;33947;46.804;134.252;2024-03-07T14:11:23;100955.09;;;-13.84;55.29
46846;BME280;33947;46.804;134.252;2024-03-07T14:18:53;100943.72;;;-13.99;56.54
46846;BME280;33947;46.804;134.252;2024-03-07T14:22:37;100937.94;;;-13.97;57.03
46846;BME280;33947;46.804;134.252;2024-03-07T14:25:57;100916.38;;;-14.00;56.51
46846;BME280;33947;46.804;134.252;2024-03-07T14:29:21;100944.75;;;-13.61;55.58
46846;BME280;33947;46.804;134.252;2024-03-07T14:32:31;100942.97;;;-13.27;53.75
46846;BME280;33947;46.804;134.252;2024-03-07T14:36:00;100947.97;;;-13.52;54.03
46846;BME280;33947;46.804;134.252;2024-03-07T14:39:08;100942.50;;;-14.04;54.54
46846;BME280;33947;46.804;134.252;2024-03-07T14:42:19;100920.94;;;-14.54;56.24
46846;BME280;33947;46.804;134.252;2024-03-07T14:45:34;100942.97;;;-14.32;55.82
46846;BME280;33947;46.804;134.252;2024-03-07T14:48:43;100939.78;;;-14.86;57.46
46846;BME280;33947;46.804;134.252;2024-03-07T14:51:52;100936.84;;;-14.46;57.80
46846;BME280;33947;46.804;134.252;2024-03-07T14:55:07;100937.84;;;-13.98;55.65
46846;BME280;33947;46.804;134.252;2024-03-07T14:58:15;100935.06;;;-13.77;53.46
46846;BME280;33947;46.804;134.252;2024-03-07T15:01:22;100931.19;;;-13.84;52.99
46846;BME280;33947;46.804;134.252;2024-03-07T15:04:32;100906.44;;;-14.07;53.62
46846;BME280;33947;46.804;134.252;2024-03-07T15:07:42;100927.84;;;-13.95;52.86
46846;BME280;33947;46.804;134.252;2024-03-07T15:10:54;100933.63;;;-13.86;52.56
46846;BME280;33947;46.804;134.252;2024-03-07T15:14:03;100933.94;;;-13.93;52.68
46846;BME280;33947;46.804;134.252;2024-03-07T15:17:13;100932.94;;;-14.41;53.60
46846;BME280;33947;46.804;134.252;2024-03-07T15:20:20;100933.88;;;-14.75;55.06
46846;BME280;33947;46.804;134.252;2024-03-07T15:23:32;100931.59;;;-14.60;54.91
46846;BME280;33947;46.804;134.252;2024-03-07T15:26:39;100931.09;;;-15.00;55.79
46846;BME280;33947;46.804;134.252;2024-03-07T15:29:51;100928.16;;;-15.05;56.92
46846;BME280;33947;46.804;134.252;2024-03-07T15:32:59;100934.78;;;-14.62;55.79
46846;BME280;33947;46.804;134.252;2024-03-07T15:36:07;100934.19;;;-14.70;55.18
46846;BME280;33947;46.804;134.252;2024-03-07T15:39:16;100927.31;;;-14.93;56.12
46846;BME280;33947;46.804;134.252;2024-03-07T15:42:30;100922.69;;;-15.09;56.48
46846;BME280;33947;46.804;134.252;2024-03-07T15:45:38;100924.91;;;-14.92;55.86
46846;BME280;33947;46.804;134.252;2024-03-07T15:48:46;100928.66;;;-15.31;57.46
46846;BME280;33947;46.804;134.252;2024-03-07T15:51:54;100925.09;;;-15.33;57.22
46846;BME280;33947;46.804;134.252;2024-03-07T15:55:03;100926.19;;;-15.52;58.27
46846;BME280;33947;46.804;134.252;2024-03-07T15:58:11;100923.16;;;-15.58;58.06
46846;BME280;33947;46.804;134.252;2024-03-07T16:01:22;100907.81;;;-15.26;57.80
46846;BME280;33947;46.804;134.252;2024-03-07T16:04:29;100920.41;;;-15.39;57.32
46846;BME280;33947;46.804;134.252;2024-03-07T16:07:37;100921.28;;;-15.71;57.08
46846;BME280;33947;46.804;134.252;2024-03-07T16:10:48;100927.81;;;-15.75;57.63
46846;BME280;33947;46.804;134.252;2024-03-07T16:13:57;100917.72;;;-15.41;57.20